sensor_id;sensor_type;location;lat;lon;timestamp;temperature;humidity
40952;DHT22;26682;51.660;19.338;2022-08-21T00:01:42;19.50;99.90
40952;DHT22;26682;51.660;19.338;2022-08-21T00:03:28;19.50;99.90
40952;DHT22;26682;51.660;19.338;2022-08-21T00:05:16;19.50;99.90
40952;DHT22;26682;51.660;19.338;2022-08-21T00:07:02;19.50;99.90
40952;DHT22;26682;51.660;19.338;2022-08-21T00:08:48;19.40;99.90
40952;DHT22;26682;51.660;19.338;2022-08-21T00:10:34;19.40;99.90
40952;DHT22;26682;51.660;19.338;2022-08-21T00:12:20;19.40;99.90
40952;DHT22;26682;51.660;19.338;2022-08-21T00:14:08;19.40;99.90
40952;DHT22;26682;51.660;19.338;2022-08-21T00:15:54;19.40;99.90
40952;DHT22;26682;51.660;19.338;2022-08-21T00:17:40;19.40;99.90
40952;DHT22;26682;51.660;19.338;2022-08-21T00:19:26;19.40;99.90
40952;DHT22;26682;51.660;19.338;2022-08-21T00:21:13;19.40;99.90
40952;DHT22;26682;51.660;19.338;2022-08-21T00:23:02;19.40;99.90
40952;DHT22;26682;51.660;19.338;2022-08-21T00:24:47;19.40;99.90
40952;DHT22;26682;51.660;19.338;2022-08-21T00:26:33;19.40;99.90
40952;DHT22;26682;51.660;19.338;2022-08-21T00:28:19;19.40;99.90
40952;DHT22;26682;51.660;19.338;2022-08-21T00:30:06;19.30;99.90
40952;DHT22;26682;51.660;19.338;2022-08-21T00:31:52;19.30;99.90
40952;DHT22;26682;51.660;19.338;2022-08-21T00:33:39;19.30;99.90
40952;DHT22;26682;51.660;19.338;2022-08-21T00:35:28;19.30;99.90
40952;DHT22;26682;51.660;19.338;2022-08-21T00:37:14;19.30;99.90
40952;DHT22;26682;51.660;19.338;2022-08-21T00:39:01;19.30;99.90
40952;DHT22;26682;51.660;19.338;2022-08-21T00:40:53;19.30;99.90
40952;DHT22;26682;51.660;19.338;2022-08-21T00:42:40;19.30;99.90
40952;DHT22;26682;51.660;19.338;2022-08-21T00:44:26;19.20;99.90
40952;DHT22;26682;51.660;19.338;2022-08-21T00:46:11;19.30;99.90
40952;DHT22;26682;51.660;19.338;2022-08-21T00:47:58;19.20;99.90
40952;DHT22;26682;51.660;19.338;2022-08-21T00:49:44;19.20;99.90
40952;DHT22;26682;51.660;19.338;2022-08-21T00:51:42;19.20;99.90
40952;DHT22;26682;51.660;19.338;2022-08-21T00:53:29;19.10;99.90
40952;DHT22;26682;51.660;19.338;2022-08-21T00:55:16;19.10;99.90
40952;DHT22;26682;51.660;19.338;2022-08-21T00:57:09;19.00;99.90
40952;DHT22;26682;51.660;19.338;2022-08-21T00:58:57;19.00;99.90
40952;DHT22;26682;51.660;19.338;2022-08-21T01:00:47;19.00;99.90
40952;DHT22;26682;51.660;19.338;2022-08-21T01:02:34;19.00;99.90
40952;DHT22;26682;51.660;19.338;2022-08-21T01:04:20;18.90;99.90
40952;DHT22;26682;51.660;19.338;2022-08-21T01:06:08;18.90;99.90
40952;DHT22;26682;51.660;19.338;2022-08-21T01:07:55;18.90;99.90
40952;DHT22;26682;51.660;19.338;2022-08-21T01:09:43;18.90;99.90
40952;DHT22;26682;51.660;19.338;2022-08-21T01:11:31;18.90;99.90
40952;DHT22;26682;51.660;19.338;2022-08-21T01:13:18;18.90;99.90
40952;DHT22;26682;51.660;19.338;2022-08-21T01:15:06;18.90;99.90
40952;DHT22;26682;51.660;19.338;2022-08-21T01:16:53;18.90;99.90
40952;DHT22;26682;51.660;19.338;2022-08-21T01:18:40;18.90;99.90
40952;DHT22;26682;51.660;19.338;2022-08-21T01:20:27;18.90;99.90
40952;DHT22;26682;51.660;19.338;2022-08-21T01:22:13;18.90;99.90
40952;DHT22;26682;51.660;19.338;2022-08-21T01:23:59;18.90;99.90
40952;DHT22;26682;51.660;19.338;2022-08-21T01:25:45;18.90;99.90
40952;DHT22;26682;51.660;19.338;2022-08-21T01:27:31;18.80;99.90
40952;DHT22;26682;51.660;19.338;2022-08-21T01:29:45;18.80;99.90
40952;DHT22;26682;51.660;19.338;2022-08-21T01:31:32;18.80;99.90
40952;DHT22;26682;51.660;19.338;2022-08-21T01:33:22;18.80;99.90
40952;DHT22;26682;51.660;19.338;2022-08-21T01:35:10;18.70;99.90
40952;DHT22;26682;51.660;19.338;2022-08-21T01:36:56;18.70;99.90
40952;DHT22;26682;51.660;19.338;2022-08-21T01:38:43;18.70;99.90
40952;DHT22;26682;51.660;19.338;2022-08-21T01:40:28;18.80;99.90
40952;DHT22;26682;51.660;19.338;2022-08-21T01:42:14;18.80;99.90
40952;DHT22;26682;51.660;19.338;2022-08-21T01:44:01;18.80;99.90
40952;DHT22;26682;51.660;19.338;2022-08-21T01:45:47;18.80;99.90
40952;DHT22;26682;51.660;19.338;2022-08-21T01:47:33;18.80;99.90
40952;DHT22;26682;51.660;19.338;2022-08-21T01:49:19;18.90;99.90
40952;DHT22;26682;51.660;19.338;2022-08-21T01:51:05;18.90;99.90
40952;DHT22;26682;51.660;19.338;2022-08-21T01:52:51;18.90;99.90
40952;DHT22;26682;51.660;19.338;2022-08-21T01:54:38;18.90;99.90
40952;DHT22;26682;51.660;19.338;2022-08-21T01:56:24;18.90;99.90
40952;DHT22;26682;51.660;19.338;2022-08-21T01:58:11;18.90;99.90
40952;DHT22;26682;51.660;19.338;2022-08-21T01:59:57;18.90;99.90
40952;DHT22;26682;51.660;19.338;2022-08-21T02:01:43;18.90;99.90
40952;DHT22;26682;51.660;19.338;2022-08-21T02:03:29;18.90;99.90
40952;DHT22;26682;51.660;19.338;2022-08-21T02:05:15;19.00;99.90
40952;DHT22;26682;51.660;19.338;2022-08-21T02:07:02;19.00;99.90
40952;DHT22;26682;51.660;19.338;2022-08-21T02:08:49;19.00;99.90
40952;DHT22;26682;51.660;19.338;2022-08-21T02:10:36;19.10;99.90
40952;DHT22;26682;51.660;19.338;2022-08-21T02:12:22;19.10;99.90
40952;DHT22;26682;51.660;19.338;2022-08-21T02:14:09;19.10;99.90
40952;DHT22;26682;51.660;19.338;2022-08-21T02:15:55;19.10;99.90
40952;DHT22;26682;51.660;19.338;2022-08-21T02:17:51;19.10;99.90
40952;DHT22;26682;51.660;19.338;2022-08-21T02:19:37;19.10;99.90
40952;DHT22;26682;51.660;19.338;2022-08-21T02:21:23;19.20;99.90
40952;DHT22;26682;51.660;19.338;2022-08-21T02:23:11;19.20;99.90
40952;DHT22;26682;51.660;19.338;2022-08-21T02:24:57;19.20;99.90
40952;DHT22;26682;51.660;19.338;2022-08-21T02:26:43;19.20;99.90
40952;DHT22;26682;51.660;19.338;2022-08-21T02:28:29;19.20;99.90
40952;DHT22;26682;51.660;19.338;2022-08-21T02:30:18;19.20;99.90
40952;DHT22;26682;51.660;19.338;2022-08-21T02:32:05;19.20;99.90
40952;DHT22;26682;51.660;19.338;2022-08-21T02:33:51;19.20;99.90
40952;DHT22;26682;51.660;19.338;2022-08-21T02:35:39;19.20;99.90
40952;DHT22;26682;51.660;19.338;2022-08-21T02:37:27;19.30;99.90
40952;DHT22;26682;51.660;19.338;2022-08-21T02:39:13;19.20;99.90
40952;DHT22;26682;51.660;19.338;2022-08-21T02:41:00;19.30;99.90
40952;DHT22;26682;51.660;19.338;2022-08-21T02:42:46;19.30;99.90
40952;DHT22;26682;51.660;19.338;2022-08-21T02:44:32;19.30;99.90
40952;DHT22;26682;51.660;19.338;2022-08-21T02:46:19;19.30;99.90
40952;DHT22;26682;51.660;19.338;2022-08-21T02:48:12;19.30;99.90
40952;DHT22;26682;51.660;19.338;2022-08-21T02:49:59;19.30;99.90
40952;DHT22;26682;51.660;19.338;2022-08-21T02:51:45;19.30;99.90
40952;DHT22;26682;51.660;19.338;2022-08-21T02:53:32;19.40;99.90
40952;DHT22;26682;51.660;19.338;2022-08-21T02:55:21;19.40;99.90
40952;DHT22;26682;51.660;19.338;2022-08-21T02:57:07;19.40;99.90
40952;DHT22;26682;51.660;19.338;2022-08-21T02:58:54;19.40;99.90
40952;DHT22;26682;51.660;19.338;2022-08-21T03:00:41;19.40;99.90
40952;DHT22;26682;51.660;19.338;2022-08-21T03:02:27;19.40;99.90
40952;DHT22;26682;51.660;19.338;2022-08-21T03:04:13;19.40;99.90
40952;DHT22;26682;51.660;19.338;2022-08-21T03:05:59;19.40;99.90
40952;DHT22;26682;51.660;19.338;2022-08-21T03:07:46;19.40;99.90
40952;DHT22;26682;51.660;19.338;2022-08-21T03:09:32;19.40;99.90
40952;DHT22;26682;51.660;19.338;2022-08-21T03:11:18;19.40;99.90
40952;DHT22;26682;51.660;19.338;2022-08-21T03:13:06;19.40;99.90
40952;DHT22;26682;51.660;19.338;2022-08-21T03:14:52;19.40;99.90
40952;DHT22;26682;51.660;19.338;2022-08-21T03:16:38;19.40;99.90
40952;DHT22;26682;51.660;19.338;2022-08-21T03:18:25;19.50;99.90
40952;DHT22;26682;51.660;19.338;2022-08-21T03:20:13;19.50;99.90
40952;DHT22;26682;51.660;19.338;2022-08-21T03:21:59;19.50;99.90
40952;DHT22;26682;51.660;19.338;2022-08-21T03:23:45;19.50;99.90
40952;DHT22;26682;51.660;19.338;2022-08-21T03:25:33;19.50;99.90
40952;DHT22;26682;51.660;19.338;2022-08-21T03:27:19;19.50;99.90
40952;DHT22;26682;51.660;19.338;2022-08-21T03:29:05;19.50;99.90
40952;DHT22;26682;51.660;19.338;2022-08-21T03:30:53;19.50;99.90
40952;DHT22;26682;51.660;19.338;2022-08-21T03:32:39;19.50;99.90
40952;DHT22;26682;51.660;19.338;2022-08-21T03:34:26;19.50;99.90
40952;DHT22;26682;51.660;19.338;2022-08-21T03:36:12;19.50;99.90
40952;DHT22;26682;51.660;19.338;2022-08-21T03:37:58;19.50;99.90
40952;DHT22;26682;51.660;19.338;2022-08-21T03:39:44;19.50;99.90
40952;DHT22;26682;51.660;19.338;2022-08-21T03:41:30;19.40;99.90
40952;DHT22;26682;51.660;19.338;2022-08-21T03:43:16;19.50;99.90
40952;DHT22;26682;51.660;19.338;2022-08-21T03:45:03;19.50;99.90
40952;DHT22;26682;51.660;19.338;2022-08-21T03:46:49;19.40;99.90
40952;DHT22;26682;51.660;19.338;2022-08-21T03:48:36;19.40;99.90
40952;DHT22;26682;51.660;19.338;2022-08-21T03:50:25;19.40;99.90
40952;DHT22;26682;51.660;19.338;2022-08-21T03:52:12;19.40;99.90
40952;DHT22;26682;51.660;19.338;2022-08-21T03:53:57;19.50;99.90
40952;DHT22;26682;51.660;19.338;2022-08-21T03:55:49;19.50;99.90
40952;DHT22;26682;51.660;19.338;2022-08-21T03:57:35;19.50;99.90
40952;DHT22;26682;51.660;19.338;2022-08-21T03:59:21;19.50;99.90
40952;DHT22;26682;51.660;19.338;2022-08-21T04:01:07;19.50;99.90
40952;DHT22;26682;51.660;19.338;2022-08-21T04:02:53;19.50;99.90
40952;DHT22;26682;51.660;19.338;2022-08-21T04:04:39;19.50;99.90
40952;DHT22;26682;51.660;19.338;2022-08-21T04:06:25;19.40;99.90
40952;DHT22;26682;51.660;19.338;2022-08-21T04:08:13;19.40;99.90
40952;DHT22;26682;51.660;19.338;2022-08-21T04:09:59;19.40;99.90
40952;DHT22;26682;51.660;19.338;2022-08-21T04:11:46;19.40;99.90
40952;DHT22;26682;51.660;19.338;2022-08-21T04:13:32;19.50;99.90
40952;DHT22;26682;51.660;19.338;2022-08-21T04:15:19;19.40;99.90
40952;DHT22;26682;51.660;19.338;2022-08-21T04:17:05;19.40;99.90
40952;DHT22;26682;51.660;19.338;2022-08-21T04:18:52;19.40;99.90
40952;DHT22;26682;51.660;19.338;2022-08-21T04:20:39;19.40;99.90
40952;DHT22;26682;51.660;19.338;2022-08-21T04:22:26;19.40;99.90
40952;DHT22;26682;51.660;19.338;2022-08-21T04:24:12;19.50;99.90
40952;DHT22;26682;51.660;19.338;2022-08-21T04:25:58;19.40;99.90
40952;DHT22;26682;51.660;19.338;2022-08-21T04:27:44;19.40;99.90
40952;DHT22;26682;51.660;19.338;2022-08-21T04:29:31;19.50;99.90
40952;DHT22;26682;51.660;19.338;2022-08-21T04:31:18;19.50;99.90
40952;DHT22;26682;51.660;19.338;2022-08-21T04:33:04;19.50;99.90
40952;DHT22;26682;51.660;19.338;2022-08-21T04:34:56;19.60;99.90
40952;DHT22;26682;51.660;19.338;2022-08-21T04:36:42;19.60;99.90
40952;DHT22;26682;51.660;19.338;2022-08-21T04:38:28;19.60;99.90
40952;DHT22;26682;51.660;19.338;2022-08-21T04:40:17;19.60;99.90
40952;DHT22;26682;51.660;19.338;2022-08-21T04:42:03;19.60;99.90
40952;DHT22;26682;51.660;19.338;2022-08-21T04:43:52;19.70;99.90
40952;DHT22;26682;51.660;19.338;2022-08-21T04:45:43;19.70;99.90
40952;DHT22;26682;51.660;19.338;2022-08-21T04:47:30;19.70;99.90
40952;DHT22;26682;51.660;19.338;2022-08-21T04:49:15;19.60;99.90
40952;DHT22;26682;51.660;19.338;2022-08-21T04:52:47;19.70;99.90
40952;DHT22;26682;51.660;19.338;2022-08-21T04:54:36;19.70;99.90
40952;DHT22;26682;51.660;19.338;2022-08-21T04:56:36;19.70;99.90
40952;DHT22;26682;51.660;19.338;2022-08-21T04:58:24;19.70;99.90
40952;DHT22;26682;51.660;19.338;2022-08-21T05:00:12;19.70;99.90
40952;DHT22;26682;51.660;19.338;2022-08-21T05:02:00;19.70;99.90
40952;DHT22;26682;51.660;19.338;2022-08-21T05:03:47;19.70;99.90
40952;DHT22;26682;51.660;19.338;2022-08-21T05:05:34;19.70;99.90
40952;DHT22;26682;51.660;19.338;2022-08-21T05:07:26;19.80;99.90
40952;DHT22;26682;51.660;19.338;2022-08-21T05:09:15;19.80;99.90
40952;DHT22;26682;51.660;19.338;2022-08-21T05:11:02;19.90;99.90
40952;DHT22;26682;51.660;19.338;2022-08-21T05:12:49;20.10;99.90
40952;DHT22;26682;51.660;19.338;2022-08-21T05:14:35;20.20;99.90
40952;DHT22;26682;51.660;19.338;2022-08-21T05:16:21;20.40;99.90
40952;DHT22;26682;51.660;19.338;2022-08-21T05:18:07;20.30;99.90
40952;DHT22;26682;51.660;19.338;2022-08-21T05:19:53;20.50;99.90
40952;DHT22;26682;51.660;19.338;2022-08-21T05:21:42;20.70;99.90
40952;DHT22;26682;51.660;19.338;2022-08-21T05:23:28;20.70;99.90
40952;DHT22;26682;51.660;19.338;2022-08-21T05:25:14;20.80;99.90
40952;DHT22;26682;51.660;19.338;2022-08-21T05:27:01;20.80;99.90
40952;DHT22;26682;51.660;19.338;2022-08-21T05:28:47;20.70;99.90
40952;DHT22;26682;51.660;19.338;2022-08-21T05:30:34;20.80;99.90
40952;DHT22;26682;51.660;19.338;2022-08-21T05:32:20;20.70;99.90
40952;DHT22;26682;51.660;19.338;2022-08-21T05:34:06;20.70;99.90
40952;DHT22;26682;51.660;19.338;2022-08-21T05:35:54;20.70;99.90
40952;DHT22;26682;51.660;19.338;2022-08-21T05:37:42;20.60;99.90
40952;DHT22;26682;51.660;19.338;2022-08-21T05:39:28;20.50;99.90
40952;DHT22;26682;51.660;19.338;2022-08-21T05:41:14;20.60;99.90
40952;DHT22;26682;51.660;19.338;2022-08-21T05:43:00;20.70;99.90
40952;DHT22;26682;51.660;19.338;2022-08-21T05:44:46;20.70;99.90
40952;DHT22;26682;51.660;19.338;2022-08-21T05:46:32;20.80;99.90
40952;DHT22;26682;51.660;19.338;2022-08-21T05:48:21;20.90;99.90
40952;DHT22;26682;51.660;19.338;2022-08-21T05:50:08;21.10;99.90
40952;DHT22;26682;51.660;19.338;2022-08-21T05:51:54;21.30;99.90
40952;DHT22;26682;51.660;19.338;2022-08-21T05:53:42;21.30;99.90
40952;DHT22;26682;51.660;19.338;2022-08-21T05:55:28;21.30;99.90
40952;DHT22;26682;51.660;19.338;2022-08-21T05:57:14;21.30;99.90
40952;DHT22;26682;51.660;19.338;2022-08-21T05:59:00;21.30;99.90
40952;DHT22;26682;51.660;19.338;2022-08-21T06:00:47;21.20;99.90
40952;DHT22;26682;51.660;19.338;2022-08-21T06:02:33;21.20;99.90
40952;DHT22;26682;51.660;19.338;2022-08-21T06:04:19;21.10;99.90
40952;DHT22;26682;51.660;19.338;2022-08-21T06:06:06;21.10;99.90
40952;DHT22;26682;51.660;19.338;2022-08-21T06:07:52;21.00;99.90
40952;DHT22;26682;51.660;19.338;2022-08-21T06:09:38;21.00;99.90
40952;DHT22;26682;51.660;19.338;2022-08-21T06:11:24;21.10;99.90
40952;DHT22;26682;51.660;19.338;2022-08-21T06:13:11;21.10;99.90
40952;DHT22;26682;51.660;19.338;2022-08-21T06:14:57;21.10;99.90
40952;DHT22;26682;51.660;19.338;2022-08-21T06:16:43;21.20;99.90
40952;DHT22;26682;51.660;19.338;2022-08-21T06:18:29;21.20;99.90
40952;DHT22;26682;51.660;19.338;2022-08-21T06:20:15;21.20;99.90
40952;DHT22;26682;51.660;19.338;2022-08-21T06:22:01;21.20;99.90
40952;DHT22;26682;51.660;19.338;2022-08-21T06:23:47;21.00;99.90
40952;DHT22;26682;51.660;19.338;2022-08-21T06:25:33;21.00;99.90
40952;DHT22;26682;51.660;19.338;2022-08-21T06:27:19;21.00;99.90
40952;DHT22;26682;51.660;19.338;2022-08-21T06:29:05;21.00;99.90
40952;DHT22;26682;51.660;19.338;2022-08-21T06:30:51;21.10;99.90
40952;DHT22;26682;51.660;19.338;2022-08-21T06:32:37;21.10;99.90
40952;DHT22;26682;51.660;19.338;2022-08-21T06:34:23;21.20;99.90
40952;DHT22;26682;51.660;19.338;2022-08-21T06:36:09;21.20;99.90
40952;DHT22;26682;51.660;19.338;2022-08-21T06:37:58;21.30;99.90
40952;DHT22;26682;51.660;19.338;2022-08-21T06:39:44;21.30;99.90
40952;DHT22;26682;51.660;19.338;2022-08-21T06:41:30;21.40;99.90
40952;DHT22;26682;51.660;19.338;2022-08-21T06:43:16;21.40;99.90
40952;DHT22;26682;51.660;19.338;2022-08-21T06:45:03;21.40;99.90
40952;DHT22;26682;51.660;19.338;2022-08-21T06:46:49;21.40;99.90
40952;DHT22;26682;51.660;19.338;2022-08-21T06:48:35;21.40;99.90
40952;DHT22;26682;51.660;19.338;2022-08-21T06:50:22;21.40;99.90
40952;DHT22;26682;51.660;19.338;2022-08-21T06:52:09;21.40;99.90
40952;DHT22;26682;51.660;19.338;2022-08-21T06:53:56;21.50;99.90
40952;DHT22;26682;51.660;19.338;2022-08-21T06:55:42;21.50;99.90
40952;DHT22;26682;51.660;19.338;2022-08-21T06:57:28;21.50;99.90
40952;DHT22;26682;51.660;19.338;2022-08-21T06:59:14;21.50;99.90
40952;DHT22;26682;51.660;19.338;2022-08-21T07:01:00;21.50;99.90
40952;DHT22;26682;51.660;19.338;2022-08-21T07:02:46;21.60;99.90
40952;DHT22;26682;51.660;19.338;2022-08-21T07:04:32;21.60;99.90
40952;DHT22;26682;51.660;19.338;2022-08-21T07:06:18;21.60;99.90
40952;DHT22;26682;51.660;19.338;2022-08-21T07:08:04;21.50;99.90
40952;DHT22;26682;51.660;19.338;2022-08-21T07:09:50;21.60;99.90
40952;DHT22;26682;51.660;19.338;2022-08-21T07:11:36;21.70;99.90
40952;DHT22;26682;51.660;19.338;2022-08-21T07:13:23;21.80;99.90
40952;DHT22;26682;51.660;19.338;2022-08-21T07:15:09;21.80;99.90
40952;DHT22;26682;51.660;19.338;2022-08-21T07:16:56;21.80;99.90
40952;DHT22;26682;51.660;19.338;2022-08-21T07:18:42;22.00;99.90
40952;DHT22;26682;51.660;19.338;2022-08-21T07:20:29;22.10;99.90
40952;DHT22;26682;51.660;19.338;2022-08-21T07:22:20;22.10;99.90
40952;DHT22;26682;51.660;19.338;2022-08-21T07:24:06;22.10;99.90
40952;DHT22;26682;51.660;19.338;2022-08-21T07:25:53;22.10;99.90
40952;DHT22;26682;51.660;19.338;2022-08-21T07:27:39;22.20;99.90
40952;DHT22;26682;51.660;19.338;2022-08-21T07:29:25;22.20;99.90
40952;DHT22;26682;51.660;19.338;2022-08-21T07:31:13;22.30;99.90
40952;DHT22;26682;51.660;19.338;2022-08-21T07:33:00;22.40;99.90
40952;DHT22;26682;51.660;19.338;2022-08-21T07:34:46;22.50;99.90
40952;DHT22;26682;51.660;19.338;2022-08-21T07:36:32;22.50;99.90
40952;DHT22;26682;51.660;19.338;2022-08-21T07:38:18;22.60;99.90
40952;DHT22;26682;51.660;19.338;2022-08-21T07:40:04;22.70;99.90
40952;DHT22;26682;51.660;19.338;2022-08-21T07:41:51;22.70;99.90
40952;DHT22;26682;51.660;19.338;2022-08-21T07:43:37;22.90;99.90
40952;DHT22;26682;51.660;19.338;2022-08-21T07:45:23;23.10;99.90
40952;DHT22;26682;51.660;19.338;2022-08-21T07:47:10;23.20;99.90
40952;DHT22;26682;51.660;19.338;2022-08-21T07:48:56;23.40;99.90
40952;DHT22;26682;51.660;19.338;2022-08-21T07:50:43;23.40;99.90
40952;DHT22;26682;51.660;19.338;2022-08-21T07:52:29;23.50;99.90
40952;DHT22;26682;51.660;19.338;2022-08-21T07:54:15;23.50;99.90
40952;DHT22;26682;51.660;19.338;2022-08-21T07:56:02;23.50;99.90
40952;DHT22;26682;51.660;19.338;2022-08-21T07:57:49;23.60;99.90
40952;DHT22;26682;51.660;19.338;2022-08-21T07:59:35;23.70;99.90
40952;DHT22;26682;51.660;19.338;2022-08-21T08:01:21;23.90;99.90
40952;DHT22;26682;51.660;19.338;2022-08-21T08:03:08;24.20;99.90
40952;DHT22;26682;51.660;19.338;2022-08-21T08:04:54;24.40;99.90
40952;DHT22;26682;51.660;19.338;2022-08-21T08:06:40;24.50;99.90
40952;DHT22;26682;51.660;19.338;2022-08-21T08:08:26;24.50;99.90
40952;DHT22;26682;51.660;19.338;2022-08-21T08:10:13;24.40;99.90
40952;DHT22;26682;51.660;19.338;2022-08-21T08:11:58;24.50;99.90
40952;DHT22;26682;51.660;19.338;2022-08-21T08:13:49;24.60;99.90
40952;DHT22;26682;51.660;19.338;2022-08-21T08:15:36;24.50;99.90
40952;DHT22;26682;51.660;19.338;2022-08-21T08:17:22;24.50;99.90
40952;DHT22;26682;51.660;19.338;2022-08-21T08:19:09;24.50;99.90
40952;DHT22;26682;51.660;19.338;2022-08-21T08:20:55;24.70;99.90
40952;DHT22;26682;51.660;19.338;2022-08-21T08:22:41;24.80;99.90
40952;DHT22;26682;51.660;19.338;2022-08-21T08:24:28;24.80;99.90
40952;DHT22;26682;51.660;19.338;2022-08-21T08:26:14;24.80;99.90
40952;DHT22;26682;51.660;19.338;2022-08-21T08:28:01;24.80;99.90
40952;DHT22;26682;51.660;19.338;2022-08-21T08:29:49;24.80;99.90
40952;DHT22;26682;51.660;19.338;2022-08-21T08:31:35;24.70;99.90
40952;DHT22;26682;51.660;19.338;2022-08-21T08:33:21;24.60;99.90
40952;DHT22;26682;51.660;19.338;2022-08-21T08:35:08;24.60;99.90
40952;DHT22;26682;51.660;19.338;2022-08-21T08:36:54;24.60;99.90
40952;DHT22;26682;51.660;19.338;2022-08-21T08:38:43;24.60;99.90
40952;DHT22;26682;51.660;19.338;2022-08-21T08:42:53;24.60;99.90
40952;DHT22;26682;51.660;19.338;2022-08-21T08:44:43;24.60;99.90
40952;DHT22;26682;51.660;19.338;2022-08-21T08:46:43;24.50;99.90
40952;DHT22;26682;51.660;19.338;2022-08-21T08:48:52;24.50;99.90
40952;DHT22;26682;51.660;19.338;2022-08-21T08:51:04;24.50;99.90
40952;DHT22;26682;51.660;19.338;2022-08-21T08:53:06;24.40;99.90
40952;DHT22;26682;51.660;19.338;2022-08-21T08:55:05;24.40;99.90
40952;DHT22;26682;51.660;19.338;2022-08-21T08:56:51;24.40;99.90
40952;DHT22;26682;51.660;19.338;2022-08-21T08:58:42;24.40;99.90
40952;DHT22;26682;51.660;19.338;2022-08-21T09:00:31;24.40;99.90
40952;DHT22;26682;51.660;19.338;2022-08-21T09:02:18;24.40;99.90
40952;DHT22;26682;51.660;19.338;2022-08-21T09:04:05;24.40;99.90
40952;DHT22;26682;51.660;19.338;2022-08-21T09:06:04;24.50;99.90
40952;DHT22;26682;51.660;19.338;2022-08-21T09:14:14;24.80;99.90
40952;DHT22;26682;51.660;19.338;2022-08-21T09:16:15;25.00;99.90
40952;DHT22;26682;51.660;19.338;2022-08-21T09:18:35;25.10;99.90
40952;DHT22;26682;51.660;19.338;2022-08-21T09:20:26;25.30;99.90
40952;DHT22;26682;51.660;19.338;2022-08-21T09:26:18;25.50;99.90
40952;DHT22;26682;51.660;19.338;2022-08-21T09:28:08;25.60;99.90
40952;DHT22;26682;51.660;19.338;2022-08-21T09:29:57;25.70;99.90
40952;DHT22;26682;51.660;19.338;2022-08-21T09:31:44;25.80;99.90
40952;DHT22;26682;51.660;19.338;2022-08-21T09:33:30;25.80;99.90
40952;DHT22;26682;51.660;19.338;2022-08-21T09:35:19;25.80;99.90
40952;DHT22;26682;51.660;19.338;2022-08-21T09:37:16;25.80;99.90
40952;DHT22;26682;51.660;19.338;2022-08-21T09:39:04;25.70;99.90
40952;DHT22;26682;51.660;19.338;2022-08-21T09:41:00;25.60;99.90
40952;DHT22;26682;51.660;19.338;2022-08-21T09:42:55;25.60;99.90
40952;DHT22;26682;51.660;19.338;2022-08-21T09:44:42;25.60;99.90
40952;DHT22;26682;51.660;19.338;2022-08-21T09:46:29;25.80;99.90
40952;DHT22;26682;51.660;19.338;2022-08-21T09:48:23;26.10;99.90
40952;DHT22;26682;51.660;19.338;2022-08-21T09:50:17;26.20;99.90
40952;DHT22;26682;51.660;19.338;2022-08-21T09:52:15;26.20;99.90
40952;DHT22;26682;51.660;19.338;2022-08-21T09:55:59;26.10;99.90
40952;DHT22;26682;51.660;19.338;2022-08-21T09:58:05;26.00;99.90
40952;DHT22;26682;51.660;19.338;2022-08-21T09:59:53;25.90;99.90
40952;DHT22;26682;51.660;19.338;2022-08-21T10:01:44;26.00;99.90
40952;DHT22;26682;51.660;19.338;2022-08-21T10:03:30;26.10;99.90
40952;DHT22;26682;51.660;19.338;2022-08-21T10:05:23;26.10;99.90
40952;DHT22;26682;51.660;19.338;2022-08-21T10:07:11;26.00;99.90
40952;DHT22;26682;51.660;19.338;2022-08-21T10:09:19;25.80;99.90
40952;DHT22;26682;51.660;19.338;2022-08-21T10:11:12;25.80;99.90
40952;DHT22;26682;51.660;19.338;2022-08-21T10:13:21;25.70;99.90
40952;DHT22;26682;51.660;19.338;2022-08-21T10:15:24;25.80;99.90
40952;DHT22;26682;51.660;19.338;2022-08-21T10:17:32;26.00;99.90
40952;DHT22;26682;51.660;19.338;2022-08-21T10:21:59;26.00;99.90
40952;DHT22;26682;51.660;19.338;2022-08-21T10:24:03;26.20;99.90
40952;DHT22;26682;51.660;19.338;2022-08-21T10:25:52;26.40;99.90
40952;DHT22;26682;51.660;19.338;2022-08-21T10:35:53;26.60;99.90
40952;DHT22;26682;51.660;19.338;2022-08-21T10:46:10;26.90;99.90
40952;DHT22;26682;51.660;19.338;2022-08-21T10:48:02;27.00;99.90
40952;DHT22;26682;51.660;19.338;2022-08-21T10:50:12;27.00;99.90
40952;DHT22;26682;51.660;19.338;2022-08-21T10:52:27;27.00;99.90
40952;DHT22;26682;51.660;19.338;2022-08-21T10:56:35;26.90;99.90
40952;DHT22;26682;51.660;19.338;2022-08-21T10:58:29;26.80;99.90
40952;DHT22;26682;51.660;19.338;2022-08-21T11:00:20;26.80;99.90
40952;DHT22;26682;51.660;19.338;2022-08-21T11:04:17;26.90;99.90
40952;DHT22;26682;51.660;19.338;2022-08-21T11:06:18;27.00;99.90
40952;DHT22;26682;51.660;19.338;2022-08-21T11:10:16;26.80;99.90
40952;DHT22;26682;51.660;19.338;2022-08-21T11:18:32;26.50;99.90
40952;DHT22;26682;51.660;19.338;2022-08-21T11:20:43;26.50;99.90
40952;DHT22;26682;51.660;19.338;2022-08-21T11:22:51;26.60;99.90
40952;DHT22;26682;51.660;19.338;2022-08-21T11:29:30;26.60;99.90
40952;DHT22;26682;51.660;19.338;2022-08-21T11:31:42;26.80;99.90
40952;DHT22;26682;51.660;19.338;2022-08-21T11:37:45;26.40;99.90
40952;DHT22;26682;51.660;19.338;2022-08-21T11:39:51;26.40;99.90
40952;DHT22;26682;51.660;19.338;2022-08-21T11:41:46;26.40;99.90
40952;DHT22;26682;51.660;19.338;2022-08-21T11:47:54;26.60;99.90
40952;DHT22;26682;51.660;19.338;2022-08-21T11:51:43;26.50;99.90
40952;DHT22;26682;51.660;19.338;2022-08-21T11:53:39;26.50;99.90
40952;DHT22;26682;51.660;19.338;2022-08-21T11:56:00;26.40;99.90
40952;DHT22;26682;51.660;19.338;2022-08-21T12:02:01;26.40;99.90
40952;DHT22;26682;51.660;19.338;2022-08-21T12:03:56;26.50;99.90
40952;DHT22;26682;51.660;19.338;2022-08-21T12:05:45;26.60;99.90
40952;DHT22;26682;51.660;19.338;2022-08-21T12:07:41;26.40;99.90
40952;DHT22;26682;51.660;19.338;2022-08-21T12:09:34;26.40;99.90
40952;DHT22;26682;51.660;19.338;2022-08-21T12:11:24;26.50;99.90
40952;DHT22;26682;51.660;19.338;2022-08-21T12:13:26;26.60;99.90
40952;DHT22;26682;51.660;19.338;2022-08-21T12:17:17;26.60;99.90
40952;DHT22;26682;51.660;19.338;2022-08-21T12:19:09;26.60;99.90
40952;DHT22;26682;51.660;19.338;2022-08-21T12:21:19;26.90;99.90
40952;DHT22;26682;51.660;19.338;2022-08-21T12:23:23;26.90;99.90
40952;DHT22;26682;51.660;19.338;2022-08-21T12:25:11;26.90;99.90
40952;DHT22;26682;51.660;19.338;2022-08-21T12:29:26;27.00;99.90